sensor_id;sensor_type;location;lat;lon;timestamp;temperature;humidity
7016;DHT22;3548;48.402;9.990;2023-07-13T00:01:13;18.20;99.90
7016;DHT22;3548;48.402;9.990;2023-07-13T00:03:38;18.20;99.90
7016;DHT22;3548;48.402;9.990;2023-07-13T00:06:07;18.20;99.90
7016;DHT22;3548;48.402;9.990;2023-07-13T00:08:33;18.20;99.90
7016;DHT22;3548;48.402;9.990;2023-07-13T00:11:00;18.20;99.90
7016;DHT22;3548;48.402;9.990;2023-07-13T00:13:26;18.20;99.90
7016;DHT22;3548;48.402;9.990;2023-07-13T00:15:51;18.20;99.90
7016;DHT22;3548;48.402;9.990;2023-07-13T00:18:19;18.10;99.90
7016;DHT22;3548;48.402;9.990;2023-07-13T00:20:45;18.20;99.90
7016;DHT22;3548;48.402;9.990;2023-07-13T00:23:10;18.10;99.90
7016;DHT22;3548;48.402;9.990;2023-07-13T00:25:36;18.10;99.90
7016;DHT22;3548;48.402;9.990;2023-07-13T00:28:02;18.10;99.90
7016;DHT22;3548;48.402;9.990;2023-07-13T00:30:27;18.10;99.90
7016;DHT22;3548;48.402;9.990;2023-07-13T00:32:53;18.10;99.90
7016;DHT22;3548;48.402;9.990;2023-07-13T00:35:18;18.00;99.90
7016;DHT22;3548;48.402;9.990;2023-07-13T00:37:44;18.00;99.90
7016;DHT22;3548;48.402;9.990;2023-07-13T00:40:12;18.00;99.90
7016;DHT22;3548;48.402;9.990;2023-07-13T00:42:38;17.90;99.90
7016;DHT22;3548;48.402;9.990;2023-07-13T00:47:49;17.80;99.90
7016;DHT22;3548;48.402;9.990;2023-07-13T00:50:16;17.70;99.90
7016;DHT22;3548;48.402;9.990;2023-07-13T00:52:46;17.70;99.90
7016;DHT22;3548;48.402;9.990;2023-07-13T00:55:13;17.70;99.90
7016;DHT22;3548;48.402;9.990;2023-07-13T00:57:40;17.60;99.90
7016;DHT22;3548;48.402;9.990;2023-07-13T01:00:08;17.60;99.90
7016;DHT22;3548;48.402;9.990;2023-07-13T01:02:35;17.60;99.90
7016;DHT22;3548;48.402;9.990;2023-07-13T01:05:12;17.60;99.90
7016;DHT22;3548;48.402;9.990;2023-07-13T01:07:39;17.50;99.90
7016;DHT22;3548;48.402;9.990;2023-07-13T01:10:06;17.50;99.90
7016;DHT22;3548;48.402;9.990;2023-07-13T01:12:32;17.50;99.90
7016;DHT22;3548;48.402;9.990;2023-07-13T01:14:58;17.40;99.90
7016;DHT22;3548;48.402;9.990;2023-07-13T01:17:26;17.40;99.90
7016;DHT22;3548;48.402;9.990;2023-07-13T01:19:52;17.40;99.90
7016;DHT22;3548;48.402;9.990;2023-07-13T01:22:19;17.40;99.90
7016;DHT22;3548;48.402;9.990;2023-07-13T01:24:46;17.40;99.90
7016;DHT22;3548;48.402;9.990;2023-07-13T01:27:15;17.40;99.90
7016;DHT22;3548;48.402;9.990;2023-07-13T01:29:42;17.30;99.90
7016;DHT22;3548;48.402;9.990;2023-07-13T01:32:10;17.30;99.90
7016;DHT22;3548;48.402;9.990;2023-07-13T01:34:36;17.30;99.90
7016;DHT22;3548;48.402;9.990;2023-07-13T01:37:03;17.30;99.90
7016;DHT22;3548;48.402;9.990;2023-07-13T01:39:29;17.30;99.90
7016;DHT22;3548;48.402;9.990;2023-07-13T01:41:54;17.20;99.90
7016;DHT22;3548;48.402;9.990;2023-07-13T01:44:20;17.20;99.90
7016;DHT22;3548;48.402;9.990;2023-07-13T01:46:46;17.20;99.90
7016;DHT22;3548;48.402;9.990;2023-07-13T01:49:11;17.20;99.90
7016;DHT22;3548;48.402;9.990;2023-07-13T01:51:37;17.10;99.90
7016;DHT22;3548;48.402;9.990;2023-07-13T01:54:02;17.10;99.90
7016;DHT22;3548;48.402;9.990;2023-07-13T01:56:28;17.10;99.90
7016;DHT22;3548;48.402;9.990;2023-07-13T01:58:53;17.10;99.90
7016;DHT22;3548;48.402;9.990;2023-07-13T02:01:19;17.10;99.90
7016;DHT22;3548;48.402;9.990;2023-07-13T02:03:44;17.10;99.90
7016;DHT22;3548;48.402;9.990;2023-07-13T02:06:12;17.20;99.90
7016;DHT22;3548;48.402;9.990;2023-07-13T02:08:37;17.10;99.90
7016;DHT22;3548;48.402;9.990;2023-07-13T02:11:03;17.10;99.90
7016;DHT22;3548;48.402;9.990;2023-07-13T02:13:29;17.10;99.90
7016;DHT22;3548;48.402;9.990;2023-07-13T02:15:54;17.10;99.90
7016;DHT22;3548;48.402;9.990;2023-07-13T02:18:20;17.00;99.90
7016;DHT22;3548;48.402;9.990;2023-07-13T02:20:46;17.00;99.90
7016;DHT22;3548;48.402;9.990;2023-07-13T02:23:12;16.90;99.90
7016;DHT22;3548;48.402;9.990;2023-07-13T02:25:38;16.90;99.90
7016;DHT22;3548;48.402;9.990;2023-07-13T02:28:04;16.90;99.90
7016;DHT22;3548;48.402;9.990;2023-07-13T02:30:30;16.80;99.90
7016;DHT22;3548;48.402;9.990;2023-07-13T02:32:56;16.80;99.90
7016;DHT22;3548;48.402;9.990;2023-07-13T02:35:22;16.80;99.90
7016;DHT22;3548;48.402;9.990;2023-07-13T02:37:47;16.70;99.90
7016;DHT22;3548;48.402;9.990;2023-07-13T02:40:13;16.70;99.90
7016;DHT22;3548;48.402;9.990;2023-07-13T02:42:39;16.70;99.90
7016;DHT22;3548;48.402;9.990;2023-07-13T02:45:05;16.70;99.90
7016;DHT22;3548;48.402;9.990;2023-07-13T02:47:32;16.70;99.90
7016;DHT22;3548;48.402;9.990;2023-07-13T02:49:57;16.70;99.90
7016;DHT22;3548;48.402;9.990;2023-07-13T02:52:23;16.70;99.90
7016;DHT22;3548;48.402;9.990;2023-07-13T02:54:48;16.70;99.90
7016;DHT22;3548;48.402;9.990;2023-07-13T02:57:14;16.70;99.90
7016;DHT22;3548;48.402;9.990;2023-07-13T02:59:40;16.70;99.90
7016;DHT22;3548;48.402;9.990;2023-07-13T03:02:05;16.60;99.90
7016;DHT22;3548;48.402;9.990;2023-07-13T03:04:31;16.60;99.90
7016;DHT22;3548;48.402;9.990;2023-07-13T03:06:57;16.50;99.90
7016;DHT22;3548;48.402;9.990;2023-07-13T03:09:25;16.50;99.90
7016;DHT22;3548;48.402;9.990;2023-07-13T03:11:53;16.40;99.90
7016;DHT22;3548;48.402;9.990;2023-07-13T03:14:20;16.40;99.90
7016;DHT22;3548;48.402;9.990;2023-07-13T03:16:46;16.40;99.90
7016;DHT22;3548;48.402;9.990;2023-07-13T03:19:11;16.30;99.90
7016;DHT22;3548;48.402;9.990;2023-07-13T03:21:37;16.20;99.90
7016;DHT22;3548;48.402;9.990;2023-07-13T03:24:02;16.20;99.90
7016;DHT22;3548;48.402;9.990;2023-07-13T03:26:28;16.20;99.90
7016;DHT22;3548;48.402;9.990;2023-07-13T03:28:53;16.20;99.90
7016;DHT22;3548;48.402;9.990;2023-07-13T03:31:22;16.20;99.90
7016;DHT22;3548;48.402;9.990;2023-07-13T03:33:49;16.20;99.90
7016;DHT22;3548;48.402;9.990;2023-07-13T03:36:19;16.10;99.90
7016;DHT22;3548;48.402;9.990;2023-07-13T03:38:47;16.10;99.90
7016;DHT22;3548;48.402;9.990;2023-07-13T03:41:14;16.10;99.90
7016;DHT22;3548;48.402;9.990;2023-07-13T03:43:40;16.10;99.90
7016;DHT22;3548;48.402;9.990;2023-07-13T03:46:06;16.10;99.90
7016;DHT22;3548;48.402;9.990;2023-07-13T03:48:31;16.00;99.90
7016;DHT22;3548;48.402;9.990;2023-07-13T03:50:57;16.00;99.90
7016;DHT22;3548;48.402;9.990;2023-07-13T03:53:22;16.00;99.90
7016;DHT22;3548;48.402;9.990;2023-07-13T03:55:48;16.00;99.90
7016;DHT22;3548;48.402;9.990;2023-07-13T03:58:29;15.90;99.90
7016;DHT22;3548;48.402;9.990;2023-07-13T04:00:55;15.90;99.90
7016;DHT22;3548;48.402;9.990;2023-07-13T04:03:21;15.90;99.90
7016;DHT22;3548;48.402;9.990;2023-07-13T04:05:46;15.90;99.90
7016;DHT22;3548;48.402;9.990;2023-07-13T04:08:13;15.90;99.90
7016;DHT22;3548;48.402;9.990;2023-07-13T04:10:38;16.00;99.90
7016;DHT22;3548;48.402;9.990;2023-07-13T04:13:04;16.10;99.90
7016;DHT22;3548;48.402;9.990;2023-07-13T04:15:31;16.20;99.90
7016;DHT22;3548;48.402;9.990;2023-07-13T04:17:57;16.20;99.90
7016;DHT22;3548;48.402;9.990;2023-07-13T04:20:24;16.30;99.90
7016;DHT22;3548;48.402;9.990;2023-07-13T04:22:49;16.40;99.90
7016;DHT22;3548;48.402;9.990;2023-07-13T04:25:15;16.40;99.90
7016;DHT22;3548;48.402;9.990;2023-07-13T04:27:41;16.40;99.90
7016;DHT22;3548;48.402;9.990;2023-07-13T04:30:07;16.50;99.90
7016;DHT22;3548;48.402;9.990;2023-07-13T04:32:33;16.50;99.90
7016;DHT22;3548;48.402;9.990;2023-07-13T04:34:59;16.50;99.90
7016;DHT22;3548;48.402;9.990;2023-07-13T04:37:25;16.50;99.90
7016;DHT22;3548;48.402;9.990;2023-07-13T04:39:51;16.50;99.90
7016;DHT22;3548;48.402;9.990;2023-07-13T04:42:16;16.50;99.90
7016;DHT22;3548;48.402;9.990;2023-07-13T04:44:46;16.50;99.90
7016;DHT22;3548;48.402;9.990;2023-07-13T04:47:12;16.60;99.90
7016;DHT22;3548;48.402;9.990;2023-07-13T04:49:38;16.60;99.90
7016;DHT22;3548;48.402;9.990;2023-07-13T04:52:04;16.70;99.90
7016;DHT22;3548;48.402;9.990;2023-07-13T04:54:29;16.70;99.90
7016;DHT22;3548;48.402;9.990;2023-07-13T04:56:55;16.80;99.90
7016;DHT22;3548;48.402;9.990;2023-07-13T04:59:20;16.90;99.90
7016;DHT22;3548;48.402;9.990;2023-07-13T05:01:46;17.00;99.90
7016;DHT22;3548;48.402;9.990;2023-07-13T05:04:11;17.00;99.90
7016;DHT22;3548;48.402;9.990;2023-07-13T05:06:37;17.00;99.90
7016;DHT22;3548;48.402;9.990;2023-07-13T05:09:03;17.10;99.90
7016;DHT22;3548;48.402;9.990;2023-07-13T05:11:28;17.10;99.90
7016;DHT22;3548;48.402;9.990;2023-07-13T05:13:54;17.10;99.90
7016;DHT22;3548;48.402;9.990;2023-07-13T05:16:19;17.20;99.90
7016;DHT22;3548;48.402;9.990;2023-07-13T05:18:45;17.20;99.90
7016;DHT22;3548;48.402;9.990;2023-07-13T05:21:11;17.30;99.90
7016;DHT22;3548;48.402;9.990;2023-07-13T05:23:37;17.30;99.90
7016;DHT22;3548;48.402;9.990;2023-07-13T05:26:03;17.40;99.90
7016;DHT22;3548;48.402;9.990;2023-07-13T05:28:30;17.40;99.90
7016;DHT22;3548;48.402;9.990;2023-07-13T05:30:56;17.40;99.90
7016;DHT22;3548;48.402;9.990;2023-07-13T05:33:22;17.40;99.90
7016;DHT22;3548;48.402;9.990;2023-07-13T05:35:48;17.50;99.90
7016;DHT22;3548;48.402;9.990;2023-07-13T05:38:14;17.50;99.90
7016;DHT22;3548;48.402;9.990;2023-07-13T05:40:39;17.60;99.90
7016;DHT22;3548;48.402;9.990;2023-07-13T05:43:07;17.70;99.90
7016;DHT22;3548;48.402;9.990;2023-07-13T05:45:32;17.70;99.90
7016;DHT22;3548;48.402;9.990;2023-07-13T05:47:58;17.70;99.90
7016;DHT22;3548;48.402;9.990;2023-07-13T05:50:23;17.70;99.90
7016;DHT22;3548;48.402;9.990;2023-07-13T05:52:49;17.70;99.90
7016;DHT22;3548;48.402;9.990;2023-07-13T05:55:15;17.70;99.90
7016;DHT22;3548;48.402;9.990;2023-07-13T05:57:40;17.70;99.90
7016;DHT22;3548;48.402;9.990;2023-07-13T06:00:06;17.80;99.90
7016;DHT22;3548;48.402;9.990;2023-07-13T06:02:32;17.80;99.90
7016;DHT22;3548;48.402;9.990;2023-07-13T06:04:57;17.80;99.90
7016;DHT22;3548;48.402;9.990;2023-07-13T06:07:23;17.90;99.90
7016;DHT22;3548;48.402;9.990;2023-07-13T06:09:48;17.90;99.90
7016;DHT22;3548;48.402;9.990;2023-07-13T06:12:14;18.00;99.90
7016;DHT22;3548;48.402;9.990;2023-07-13T06:14:39;18.00;99.90
7016;DHT22;3548;48.402;9.990;2023-07-13T06:17:05;18.00;99.90
7016;DHT22;3548;48.402;9.990;2023-07-13T06:19:31;18.10;99.90
7016;DHT22;3548;48.402;9.990;2023-07-13T06:21:56;18.20;99.90
7016;DHT22;3548;48.402;9.990;2023-07-13T06:24:24;18.30;99.90
7016;DHT22;3548;48.402;9.990;2023-07-13T06:26:49;18.40;99.90
7016;DHT22;3548;48.402;9.990;2023-07-13T06:29:15;18.50;99.90
7016;DHT22;3548;48.402;9.990;2023-07-13T06:31:40;18.70;99.90
7016;DHT22;3548;48.402;9.990;2023-07-13T06:34:06;18.80;99.90
7016;DHT22;3548;48.402;9.990;2023-07-13T06:36:31;18.90;99.90
7016;DHT22;3548;48.402;9.990;2023-07-13T06:38:57;18.90;99.90
7016;DHT22;3548;48.402;9.990;2023-07-13T06:41:22;19.00;99.90
7016;DHT22;3548;48.402;9.990;2023-07-13T06:43:51;19.10;99.90
7016;DHT22;3548;48.402;9.990;2023-07-13T06:46:17;19.10;99.90
7016;DHT22;3548;48.402;9.990;2023-07-13T06:48:43;19.20;99.90
7016;DHT22;3548;48.402;9.990;2023-07-13T06:51:09;19.30;99.90
7016;DHT22;3548;48.402;9.990;2023-07-13T06:53:34;19.40;99.90
7016;DHT22;3548;48.402;9.990;2023-07-13T06:56:00;19.50;99.90
7016;DHT22;3548;48.402;9.990;2023-07-13T06:58:25;19.60;99.90
7016;DHT22;3548;48.402;9.990;2023-07-13T07:00:52;19.80;99.90
7016;DHT22;3548;48.402;9.990;2023-07-13T07:03:18;19.90;99.90
7016;DHT22;3548;48.402;9.990;2023-07-13T07:05:43;19.90;99.90
7016;DHT22;3548;48.402;9.990;2023-07-13T07:08:09;19.90;99.90
7016;DHT22;3548;48.402;9.990;2023-07-13T07:10:35;19.90;99.90
7016;DHT22;3548;48.402;9.990;2023-07-13T07:13:01;20.00;99.90
7016;DHT22;3548;48.402;9.990;2023-07-13T07:15:28;20.20;99.90
7016;DHT22;3548;48.402;9.990;2023-07-13T07:17:53;20.40;99.90
7016;DHT22;3548;48.402;9.990;2023-07-13T07:20:19;20.50;99.90
7016;DHT22;3548;48.402;9.990;2023-07-13T07:22:46;20.60;99.90
7016;DHT22;3548;48.402;9.990;2023-07-13T07:25:11;20.60;99.90
7016;DHT22;3548;48.402;9.990;2023-07-13T07:27:37;20.60;99.90
7016;DHT22;3548;48.402;9.990;2023-07-13T07:30:03;20.60;99.90
7016;DHT22;3548;48.402;9.990;2023-07-13T07:32:30;20.70;99.90
7016;DHT22;3548;48.402;9.990;2023-07-13T07:34:57;20.80;99.90
7016;DHT22;3548;48.402;9.990;2023-07-13T07:37:23;20.90;99.90
7016;DHT22;3548;48.402;9.990;2023-07-13T07:39:49;21.10;99.90
7016;DHT22;3548;48.402;9.990;2023-07-13T07:42:15;21.20;99.90
7016;DHT22;3548;48.402;9.990;2023-07-13T07:44:41;21.30;99.90
7016;DHT22;3548;48.402;9.990;2023-07-13T07:47:07;21.30;99.90
7016;DHT22;3548;48.402;9.990;2023-07-13T07:49:33;21.40;99.90
7016;DHT22;3548;48.402;9.990;2023-07-13T07:51:58;21.40;99.90
7016;DHT22;3548;48.402;9.990;2023-07-13T07:54:24;21.40;99.90
7016;DHT22;3548;48.402;9.990;2023-07-13T07:56:49;21.40;99.90
7016;DHT22;3548;48.402;9.990;2023-07-13T07:59:15;21.40;99.90
7016;DHT22;3548;48.402;9.990;2023-07-13T08:01:40;21.50;99.90
7016;DHT22;3548;48.402;9.990;2023-07-13T08:04:06;21.70;99.90
7016;DHT22;3548;48.402;9.990;2023-07-13T08:06:32;21.70;99.90
7016;DHT22;3548;48.402;9.990;2023-07-13T08:08:59;21.80;99.90
7016;DHT22;3548;48.402;9.990;2023-07-13T08:11:24;21.90;99.90
7016;DHT22;3548;48.402;9.990;2023-07-13T08:13:50;21.80;99.90
7016;DHT22;3548;48.402;9.990;2023-07-13T08:16:16;21.80;99.90
7016;DHT22;3548;48.402;9.990;2023-07-13T08:18:42;21.90;99.90
7016;DHT22;3548;48.402;9.990;2023-07-13T08:21:08;22.10;99.90
7016;DHT22;3548;48.402;9.990;2023-07-13T08:23:34;22.30;99.90
7016;DHT22;3548;48.402;9.990;2023-07-13T08:26:00;22.30;99.50
7016;DHT22;3548;48.402;9.990;2023-07-13T08:28:27;22.20;99.60
7016;DHT22;3548;48.402;9.990;2023-07-13T08:30:53;22.10;99.70
7016;DHT22;3548;48.402;9.990;2023-07-13T08:33:20;22.10;99.60
7016;DHT22;3548;48.402;9.990;2023-07-13T08:35:47;22.00;99.20
7016;DHT22;3548;48.402;9.990;2023-07-13T08:38:13;21.80;99.00
7016;DHT22;3548;48.402;9.990;2023-07-13T08:40:39;21.70;98.90
7016;DHT22;3548;48.402;9.990;2023-07-13T08:43:16;21.60;99.40
7016;DHT22;3548;48.402;9.990;2023-07-13T08:49:21;21.50;99.80
7016;DHT22;3548;48.402;9.990;2023-07-13T08:51:58;21.60;99.90
7016;DHT22;3548;48.402;9.990;2023-07-13T08:54:31;21.70;99.70
7016;DHT22;3548;48.402;9.990;2023-07-13T08:57:00;21.80;99.30
7016;DHT22;3548;48.402;9.990;2023-07-13T08:59:31;21.80;98.90
7016;DHT22;3548;48.402;9.990;2023-07-13T09:02:15;21.90;99.10
7016;DHT22;3548;48.402;9.990;2023-07-13T09:04:53;22.00;99.00
7016;DHT22;3548;48.402;9.990;2023-07-13T09:10:31;22.50;98.70
7016;DHT22;3548;48.402;9.990;2023-07-13T09:13:33;22.70;97.90
7016;DHT22;3548;48.402;9.990;2023-07-13T09:16:01;22.80;98.10
7016;DHT22;3548;48.402;9.990;2023-07-13T09:18:37;23.00;97.90
7016;DHT22;3548;48.402;9.990;2023-07-13T09:23:31;23.00;96.80
7016;DHT22;3548;48.402;9.990;2023-07-13T09:26:23;22.90;95.30
7016;DHT22;3548;48.402;9.990;2023-07-13T09:28:58;22.80;95.80
7016;DHT22;3548;48.402;9.990;2023-07-13T09:33:50;22.80;95.50
7016;DHT22;3548;48.402;9.990;2023-07-13T09:36:26;22.80;95.40
7016;DHT22;3548;48.402;9.990;2023-07-13T09:41:54;22.70;94.50
7016;DHT22;3548;48.402;9.990;2023-07-13T09:44:36;22.80;95.10
7016;DHT22;3548;48.402;9.990;2023-07-13T09:47:03;22.80;94.80
7016;DHT22;3548;48.402;9.990;2023-07-13T09:49:33;23.10;93.80
7016;DHT22;3548;48.402;9.990;2023-07-13T09:52:03;23.10;92.90
7016;DHT22;3548;48.402;9.990;2023-07-13T09:54:33;23.10;92.50
7016;DHT22;3548;48.402;9.990;2023-07-13T09:57:01;23.30;93.00
7016;DHT22;3548;48.402;9.990;2023-07-13T09:59:37;23.60;93.00
7016;DHT22;3548;48.402;9.990;2023-07-13T10:02:27;23.90;92.40
7016;DHT22;3548;48.402;9.990;2023-07-13T10:05:01;24.30;91.20
7016;DHT22;3548;48.402;9.990;2023-07-13T10:07:29;24.60;91.10
7016;DHT22;3548;48.402;9.990;2023-07-13T10:09:56;24.70;90.60
7016;DHT22;3548;48.402;9.990;2023-07-13T10:12:23;24.90;90.30
7016;DHT22;3548;48.402;9.990;2023-07-13T10:14:52;25.00;90.40
7016;DHT22;3548;48.402;9.990;2023-07-13T10:17:27;25.20;90.00
7016;DHT22;3548;48.402;9.990;2023-07-13T10:19:57;25.40;88.80
7016;DHT22;3548;48.402;9.990;2023-07-13T10:22:29;25.50;88.40
7016;DHT22;3548;48.402;9.990;2023-07-13T10:24:58;25.60;87.40
7016;DHT22;3548;48.402;9.990;2023-07-13T10:27:34;25.60;86.70
7016;DHT22;3548;48.402;9.990;2023-07-13T10:30:23;25.60;85.70
7016;DHT22;3548;48.402;9.990;2023-07-13T10:32:53;25.50;85.10
7016;DHT22;3548;48.402;9.990;2023-07-13T10:35:21;25.50;84.40
7016;DHT22;3548;48.402;9.990;2023-07-13T10:37:54;25.40;83.70
7016;DHT22;3548;48.402;9.990;2023-07-13T10:40:27;25.40;84.00
7016;DHT22;3548;48.402;9.990;2023-07-13T10:42:56;25.40;84.70
7016;DHT22;3548;48.402;9.990;2023-07-13T10:45:24;25.30;85.40
7016;DHT22;3548;48.402;9.990;2023-07-13T10:47:51;25.20;85.10
7016;DHT22;3548;48.402;9.990;2023-07-13T10:50:23;25.10;86.00
7016;DHT22;3548;48.402;9.990;2023-07-13T10:52:55;25.00;85.90
7016;DHT22;3548;48.402;9.990;2023-07-13T10:58:12;25.20;85.80
7016;DHT22;3548;48.402;9.990;2023-07-13T11:00:48;25.50;85.60
7016;DHT22;3548;48.402;9.990;2023-07-13T11:03:17;25.80;84.00
7016;DHT22;3548;48.402;9.990;2023-07-13T11:05:49;26.00;83.40
7016;DHT22;3548;48.402;9.990;2023-07-13T11:08:32;26.10;83.20
7016;DHT22;3548;48.402;9.990;2023-07-13T11:10:58;26.20;82.20
7016;DHT22;3548;48.402;9.990;2023-07-13T11:18:45;25.80;82.90
7016;DHT22;3548;48.402;9.990;2023-07-13T11:21:23;25.90;82.70
7016;DHT22;3548;48.402;9.990;2023-07-13T11:23:54;26.00;83.70
7016;DHT22;3548;48.402;9.990;2023-07-13T11:26:43;26.00;81.80
7016;DHT22;3548;48.402;9.990;2023-07-13T11:31:58;25.90;80.70
7016;DHT22;3548;48.402;9.990;2023-07-13T11:34:30;25.90;79.60
7016;DHT22;3548;48.402;9.990;2023-07-13T11:36:58;25.90;79.60
7016;DHT22;3548;48.402;9.990;2023-07-13T11:39:39;25.80;80.40
7016;DHT22;3548;48.402;9.990;2023-07-13T11:42:12;25.80;80.30
7016;DHT22;3548;48.402;9.990;2023-07-13T11:44:43;25.90;80.90
7016;DHT22;3548;48.402;9.990;2023-07-13T11:47:14;25.80;78.50
7016;DHT22;3548;48.402;9.990;2023-07-13T11:49:45;25.90;80.90
7016;DHT22;3548;48.402;9.990;2023-07-13T11:52:16;26.10;77.90
7016;DHT22;3548;48.402;9.990;2023-07-13T11:54:51;26.20;79.30
7016;DHT22;3548;48.402;9.990;2023-07-13T11:57:25;26.30;78.80
7016;DHT22;3548;48.402;9.990;2023-07-13T11:59:52;26.30;77.00
7016;DHT22;3548;48.402;9.990;2023-07-13T12:02:29;26.40;76.10
7016;DHT22;3548;48.402;9.990;2023-07-13T12:04:56;26.60;76.90
7016;DHT22;3548;48.402;9.990;2023-07-13T12:07:22;26.70;76.60
7016;DHT22;3548;48.402;9.990;2023-07-13T12:09:48;26.80;76.20
7016;DHT22;3548;48.402;9.990;2023-07-13T12:12:21;26.60;74.70
7016;DHT22;3548;48.402;9.990;2023-07-13T12:14:54;26.50;75.60
7016;DHT22;3548;48.402;9.990;2023-07-13T12:17:22;26.20;75.10
7016;DHT22;3548;48.402;9.990;2023-07-13T12:19:49;26.00;75.10
7016;DHT22;3548;48.402;9.990;2023-07-13T12:22:17;25.80;75.90
7016;DHT22;3548;48.402;9.990;2023-07-13T12:24:44;25.70;77.50
7016;DHT22;3548;48.402;9.990;2023-07-13T12:27:23;25.70;74.20
7016;DHT22;3548;48.402;9.990;2023-07-13T12:30:02;25.80;74.60
7016;DHT22;3548;48.402;9.990;2023-07-13T12:32:28;26.00;73.60
7016;DHT22;3548;48.402;9.990;2023-07-13T12:35:16;26.10;72.40
7016;DHT22;3548;48.402;9.990;2023-07-13T12:37:51;26.30;71.50
7016;DHT22;3548;48.402;9.990;2023-07-13T12:40:20;26.40;69.40
7016;DHT22;3548;48.402;9.990;2023-07-13T12:42:49;26.40;71.20
7016;DHT22;3548;48.402;9.990;2023-07-13T12:45:24;26.60;69.90
7016;DHT22;3548;48.402;9.990;2023-07-13T12:47:54;26.70;69.30
7016;DHT22;3548;48.402;9.990;2023-07-13T12:50:28;26.80;67.70
7016;DHT22;3548;48.402;9.990;2023-07-13T12:52:59;26.90;64.80
7016;DHT22;3548;48.402;9.990;2023-07-13T12:55:28;26.80;65.30
7016;DHT22;3548;48.402;9.990;2023-07-13T12:57:58;26.70;65.60
7016;DHT22;3548;48.402;9.990;2023-07-13T13:00:33;26.50;68.50
7016;DHT22;3548;48.402;9.990;2023-07-13T13:03:05;26.30;68.30
7016;DHT22;3548;48.402;9.990;2023-07-13T13:05:32;26.00;68.30
7016;DHT22;3548;48.402;9.990;2023-07-13T13:07:59;25.80;69.90
7016;DHT22;3548;48.402;9.990;2023-07-13T13:10:25;25.90;70.40
7016;DHT22;3548;48.402;9.990;2023-07-13T13:12:52;26.00;71.00
7016;DHT22;3548;48.402;9.990;2023-07-13T13:15:18;26.00;70.00
7016;DHT22;3548;48.402;9.990;2023-07-13T13:17:43;26.10;70.60
7016;DHT22;3548;48.402;9.990;2023-07-13T13:20:17;26.40;70.60
7016;DHT22;3548;48.402;9.990;2023-07-13T13:22:44;26.70;71.60
7016;DHT22;3548;48.402;9.990;2023-07-13T13:25:10;27.00;70.50
7016;DHT22;3548;48.402;9.990;2023-07-13T13:27:36;27.30;68.30
7016;DHT22;3548;48.402;9.990;2023-07-13T13:30:02;27.20;68.40
7016;DHT22;3548;48.402;9.990;2023-07-13T13:32:28;27.00;67.60
7016;DHT22;3548;48.402;9.990;2023-07-13T13:34:53;26.70;67.60
7016;DHT22;3548;48.402;9.990;2023-07-13T13:37:21;26.60;67.50
7016;DHT22;3548;48.402;9.990;2023-07-13T13:39:48;26.60;67.30
7016;DHT22;3548;48.402;9.990;2023-07-13T13:42:14;26.60;68.40
7016;DHT22;3548;48.402;9.990;2023-07-13T13:44:39;26.70;68.10
7016;DHT22;3548;48.402;9.990;2023-07-13T13:47:28;26.90;67.60
7016;DHT22;3548;48.402;9.990;2023-07-13T13:49:54;27.10;67.30
7016;DHT22;3548;48.402;9.990;2023-07-13T13:52:20;27.20;65.60
7016;DHT22;3548;48.402;9.990;2023-07-13T13:54:45;27.20;64.60
7016;DHT22;3548;48.402;9.990;2023-07-13T13:57:11;27.20;65.30
7016;DHT22;3548;48.402;9.990;2023-07-13T13:59:38;27.10;65.30
7016;DHT22;3548;48.402;9.990;2023-07-13T14:02:32;27.10;63.00
7016;DHT22;3548;48.402;9.990;2023-07-13T14:04:59;27.00;63.10
7016;DHT22;3548;48.402;9.990;2023-07-13T14:07:26;26.90;64.80
7016;DHT22;3548;48.402;9.990;2023-07-13T14:09:54;26.80;66.80
7016;DHT22;3548;48.402;9.990;2023-07-13T14:12:21;26.70;68.00
7016;DHT22;3548;48.402;9.990;2023-07-13T14:14:46;26.70;68.80
7016;DHT22;3548;48.402;9.990;2023-07-13T14:17:20;26.80;68.40
7016;DHT22;3548;48.402;9.990;2023-07-13T14:19:48;26.70;69.10
7016;DHT22;3548;48.402;9.990;2023-07-13T14:22:19;26.70;70.00
7016;DHT22;3548;48.402;9.990;2023-07-13T14:24:46;27.00;69.80
7016;DHT22;3548;48.402;9.990;2023-07-13T14:27:12;27.30;69.00
7016;DHT22;3548;48.402;9.990;2023-07-13T14:29:38;27.50;68.50
7016;DHT22;3548;48.402;9.990;2023-07-13T14:32:04;27.50;67.50
7016;DHT22;3548;48.402;9.990;2023-07-13T14:34:31;27.50;67.70
7016;DHT22;3548;48.402;9.990;2023-07-13T14:36:57;27.40;68.10
7016;DHT22;3548;48.402;9.990;2023-07-13T14:39:24;27.30;67.30
7016;DHT22;3548;48.402;9.990;2023-07-13T14:41:54;27.20;68.20
7016;DHT22;3548;48.402;9.990;2023-07-13T14:44:24;27.10;68.40
7016;DHT22;3548;48.402;9.990;2023-07-13T14:46:50;27.10;68.30
7016;DHT22;3548;48.402;9.990;2023-07-13T14:49:37;26.90;68.80
7016;DHT22;3548;48.402;9.990;2023-07-13T14:52:15;26.70;68.80
7016;DHT22;3548;48.402;9.990;2023-07-13T14:54:41;26.70;68.40
7016;DHT22;3548;48.402;9.990;2023-07-13T14:57:16;26.70;68.10
7016;DHT22;3548;48.402;9.990;2023-07-13T14:59:42;26.70;67.80
7016;DHT22;3548;48.402;9.990;2023-07-13T15:04:39;26.70;68.30
7016;DHT22;3548;48.402;9.990;2023-07-13T15:07:04;26.90;68.60
7016;DHT22;3548;48.402;9.990;2023-07-13T15:09:30;27.10;67.50
7016;DHT22;3548;48.402;9.990;2023-07-13T15:11:56;27.10;66.40
7016;DHT22;3548;48.402;9.990;2023-07-13T15:14:22;27.00;65.50
7016;DHT22;3548;48.402;9.990;2023-07-13T15:16:51;27.00;65.60
7016;DHT22;3548;48.402;9.990;2023-07-13T15:19:19;26.80;65.70
7016;DHT22;3548;48.402;9.990;2023-07-13T15:21:46;26.60;66.80
7016;DHT22;3548;48.402;9.990;2023-07-13T15:24:13;26.50;66.70
7016;DHT22;3548;48.402;9.990;2023-07-13T15:26:38;26.40;66.60
7016;DHT22;3548;48.402;9.990;2023-07-13T15:29:04;26.30;66.90
7016;DHT22;3548;48.402;9.990;2023-07-13T15:31:32;26.20;67.40
7016;DHT22;3548;48.402;9.990;2023-07-13T15:33:59;26.20;67.70
7016;DHT22;3548;48.402;9.990;2023-07-13T15:36:26;26.20;68.20
7016;DHT22;3548;48.402;9.990;2023-07-13T15:38:55;26.30;68.00
7016;DHT22;3548;48.402;9.990;2023-07-13T15:41:23;26.20;68.10
7016;DHT22;3548;48.402;9.990;2023-07-13T15:43:50;26.20;68.70
7016;DHT22;3548;48.402;9.990;2023-07-13T15:46:19;26.30;69.30
7016;DHT22;3548;48.402;9.990;2023-07-13T15:48:45;26.60;69.10
7016;DHT22;3548;48.402;9.990;2023-07-13T15:51:19;26.70;68.70
7016;DHT22;3548;48.402;9.990;2023-07-13T15:53:45;26.70;60.70
7016;DHT22;3548;48.402;9.990;2023-07-13T15:56:28;26.40;57.70
7016;DHT22;3548;48.402;9.990;2023-07-13T15:58:55;26.00;57.70
7016;DHT22;3548;48.402;9.990;2023-07-13T16:01:22;25.90;57.60
7016;DHT22;3548;48.402;9.990;2023-07-13T16:03:49;25.90;58.40
7016;DHT22;3548;48.402;9.990;2023-07-13T16:08:43;25.80;56.50
7016;DHT22;3548;48.402;9.990;2023-07-13T16:11:25;25.70;57.00
7016;DHT22;3548;48.402;9.990;2023-07-13T16:13:51;25.60;56.80
7016;DHT22;3548;48.402;9.990;2023-07-13T16:16:21;25.70;56.40
7016;DHT22;3548;48.402;9.990;2023-07-13T16:18:51;25.90;57.10
7016;DHT22;3548;48.402;9.990;2023-07-13T16:21:19;26.00;56.40
7016;DHT22;3548;48.402;9.990;2023-07-13T16:23:45;25.90;56.20
7016;DHT22;3548;48.402;9.990;2023-07-13T16:26:34;25.80;56.20
7016;DHT22;3548;48.402;9.990;2023-07-13T16:29:15;25.70;57.10
7016;DHT22;3548;48.402;9.990;2023-07-13T16:31:41;25.60;58.50
7016;DHT22;3548;48.402;9.990;2023-07-13T16:34:07;25.80;58.50
7016;DHT22;3548;48.402;9.990;2023-07-13T16:36:36;26.00;58.90
7016;DHT22;3548;48.402;9.990;2023-07-13T16:39:10;26.20;59.40
7016;DHT22;3548;48.402;9.990;2023-07-13T16:41:36;26.40;58.70